createdAt,value
2023-01-20T00:00:24.589Z,99693.25
2023-01-20T00:03:13.396Z,99697.06
2023-01-20T00:05:53.748Z,99700.70
2023-01-20T00:09:07.627Z,99702.31
2023-01-20T00:12:08.541Z,99706.86
2023-01-20T00:14:38.852Z,99706.20
2023-01-20T00:17:11.772Z,99705.21
2023-01-20T00:19:41.733Z,99708.77
2023-01-20T00:22:11.001Z,99714.02
2023-01-20T00:24:39.886Z,99710.59
2023-01-20T00:27:08.625Z,99714.44
2023-01-20T00:29:37.810Z,99718.12
2023-01-20T00:32:06.974Z,99719.59
2023-01-20T00:34:35.834Z,99720.95
2023-01-20T00:37:06.289Z,99724.17
2023-01-20T00:39:34.976Z,99723.70
2023-01-20T00:42:04.328Z,99725.89
2023-01-20T00:45:32.716Z,99727.09
2023-01-20T00:48:03.944Z,99726.23
2023-01-20T00:50:33.184Z,99728.26
2023-01-20T00:53:01.807Z,99729.07
2023-01-20T00:55:52.564Z,99729.50
2023-01-20T00:58:51.361Z,99732.82
2023-01-20T01:01:19.994Z,99741.85
2023-01-20T01:03:48.895Z,99746.05
2023-01-20T01:09:22.310Z,99754.33
2023-01-20T01:11:53.364Z,99761.76
2023-01-20T01:14:22.171Z,99761.65
2023-01-20T01:16:51.719Z,99761.05
2023-01-20T01:19:20.586Z,99763.80
2023-01-20T01:21:49.322Z,99760.11
2023-01-20T01:24:18.590Z,99763.17
2023-01-20T01:26:47.448Z,99766.37
2023-01-20T01:29:16.182Z,99766.81
2023-01-20T01:31:45.531Z,99761.50
2023-01-20T01:34:15.771Z,99765.30
2023-01-20T01:36:44.560Z,99769.65
2023-01-20T01:39:13.435Z,99776.55
2023-01-20T01:41:42.893Z,99784.67
2023-01-20T01:44:13.614Z,99784.98
2023-01-20T01:46:46.987Z,99785.50
2023-01-20T01:49:31.091Z,99792.61
2023-01-20T01:52:43.083Z,99794.83
2023-01-20T01:56:17.830Z,99793.11
2023-01-20T01:59:24.972Z,99800.52
2023-01-20T02:02:50.493Z,99808.55
2023-01-20T02:06:20.318Z,99814.15
2023-01-20T02:09:54.862Z,99815.08
2023-01-20T02:16:17.268Z,99821.46
2023-01-20T02:23:58.405Z,99818.77
2023-01-20T02:27:06.463Z,99820.59
2023-01-20T02:30:28.625Z,99823.95
2023-01-20T02:37:52.040Z,99825.46
2023-01-20T02:41:20.034Z,99829.95
2023-01-20T02:44:36.273Z,99829.59
2023-01-20T02:47:53.974Z,99826.51
2023-01-20T02:55:16.094Z,99822.02
2023-01-20T02:59:04.889Z,99821.55
2023-01-20T03:02:23.447Z,99822.27
2023-01-20T03:08:49.196Z,99828.20
2023-01-20T03:12:56.783Z,99831.67
2023-01-20T03:16:34.011Z,99833.33
2023-01-20T03:19:43.016Z,99831.01
2023-01-20T03:30:44.071Z,99838.52
2023-01-20T03:37:31.574Z,99840.85
2023-01-20T03:44:44.036Z,99850.11
2023-01-20T03:48:35.021Z,99855.58
2023-01-20T03:51:57.006Z,99858.38
2023-01-20T03:59:23.965Z,99878.77
2023-01-20T04:06:43.676Z,99893.82
2023-01-20T04:12:45.209Z,99903.25
2023-01-20T04:15:58.268Z,99901.87
2023-01-20T04:19:05.181Z,99899.83
2023-01-20T04:22:22.715Z,99901.80
2023-01-20T04:26:10.950Z,99908.16
2023-01-20T04:29:36.246Z,99914.19
2023-01-20T04:33:10.642Z,99915.67
2023-01-20T04:36:22.313Z,99915.61
2023-01-20T04:39:41.676Z,99908.55
2023-01-20T04:43:02.216Z,99908.51
2023-01-20T04:46:53.354Z,99913.23
2023-01-20T04:53:29.222Z,99914.21
2023-01-20T04:56:56.828Z,99922.44
2023-01-20T05:00:05.657Z,99925.88
2023-01-20T05:03:06.454Z,99930.50
2023-01-20T05:05:42.051Z,99931.94
2023-01-20T05:08:19.433Z,99935.27
2023-01-20T05:10:58.445Z,99941.98
2023-01-20T05:13:35.972Z,99951.02
2023-01-20T05:16:13.544Z,99951.70
2023-01-20T05:18:52.252Z,99949.91
2023-01-20T05:21:37.819Z,99949.86
2023-01-20T05:24:16.363Z,99957.24
2023-01-20T05:26:58.185Z,99967.56
2023-01-20T05:29:38.426Z,99970.98
2023-01-20T05:32:34.253Z,99973.09
2023-01-20T05:35:31.947Z,99975.89
2023-01-20T05:38:11.431Z,99976.16
2023-01-20T05:41:03.116Z,99978.71
2023-01-20T05:43:58.688Z,99978.38
2023-01-20T05:46:53.329Z,99981.77
2023-01-20T05:49:33.087Z,99989.04
2023-01-20T05:52:11.908Z,99990.56
2023-01-20T05:54:50.949Z,99995.34
2023-01-20T05:57:39.249Z,100003.89
2023-01-20T06:01:09.814Z,100007.13
2023-01-20T06:04:28.016Z,100007.45
2023-01-20T06:07:54.659Z,100015.42
2023-01-20T06:11:36.282Z,100021.81
2023-01-20T06:14:55.207Z,100023.27
2023-01-20T06:18:07.683Z,100028.94
2023-01-20T06:21:11.140Z,100032.23
2023-01-20T06:24:01.806Z,100037.12
2023-01-20T06:27:32.262Z,100046.71
2023-01-20T06:30:33.667Z,100044.47
2023-01-20T06:33:55.408Z,100047.55
2023-01-20T06:37:08.574Z,100047.65
2023-01-20T06:39:50.961Z,100051.36
2023-01-20T06:42:39.094Z,100055.48
2023-01-20T06:45:39.182Z,100059.25
2023-01-20T06:48:52.114Z,100060.45
2023-01-20T06:52:11.301Z,100062.70
2023-01-20T06:55:27.106Z,100064.66
2023-01-20T06:58:47.901Z,100070.15
2023-01-20T07:02:09.223Z,100076.83
2023-01-20T07:05:32.402Z,100086.14
2023-01-20T07:08:33.257Z,100089.43
2023-01-20T07:11:48.272Z,100094.27
2023-01-20T07:14:58.973Z,100101.86
2023-01-20T07:17:57.384Z,100109.60
2023-01-20T07:21:00.774Z,100115.45
2023-01-20T07:23:53.769Z,100115.84
2023-01-20T07:27:06.091Z,100117.50
2023-01-20T07:30:25.837Z,100128.68
2023-01-20T07:33:48.126Z,100133.13
2023-01-20T07:36:57.829Z,100133.83
2023-01-20T07:40:27.220Z,100139.45
2023-01-20T07:43:55.693Z,100143.36
2023-01-20T07:47:19.034Z,100144.52
2023-01-20T07:50:48.562Z,100142.50
2023-01-20T07:54:24.282Z,100143.67
2023-01-20T07:57:35.539Z,100149.30
2023-01-20T08:07:43.482Z,100148.61
2023-01-20T08:11:03.615Z,100149.13
2023-01-20T08:14:36.338Z,100147.68
2023-01-20T09:15:04.833Z,100247.29
2023-01-20T09:17:43.648Z,100254.13
2023-01-20T09:20:34.807Z,100258.91
2023-01-20T09:23:48.422Z,100262.20
2023-01-20T09:26:34.356Z,100269.73
2023-01-20T09:29:10.645Z,100273.50
2023-01-20T09:31:44.811Z,100272.65
2023-01-20T09:34:19.810Z,100276.26
2023-01-20T09:37:22.741Z,100274.39
2023-01-20T09:40:12.667Z,100269.80
2023-01-20T09:43:20.663Z,100268.08
2023-01-20T09:46:12.517Z,100270.46
2023-01-20T09:49:36.195Z,100277.96
2023-01-20T09:52:37.506Z,100288.05
2023-01-20T09:55:16.451Z,100294.19
2023-01-20T09:57:53.020Z,100297.27
2023-01-20T10:00:52.541Z,100289.05
2023-01-20T10:03:40.330Z,100277.46
2023-01-20T10:06:27.122Z,100274.39
2023-01-20T10:09:25.558Z,100267.58
2023-01-20T10:12:08.382Z,100262.09
2023-01-20T10:15:07.629Z,100256.13
2023-01-20T10:18:08.461Z,100254.60
2023-01-20T10:20:45.940Z,100247.77
2023-01-20T10:23:36.251Z,100245.72
2023-01-20T10:26:19.619Z,100241.95
2023-01-20T10:29:01.195Z,100244.69
2023-01-20T10:31:36.090Z,100246.39
2023-01-20T10:34:18.501Z,100246.89
2023-01-20T10:37:10.940Z,100246.86
2023-01-20T10:40:10.627Z,100249.08
2023-01-20T10:42:40.221Z,100260.34
2023-01-20T10:45:28.980Z,100270.42
2023-01-20T10:48:27.533Z,100267.69
2023-01-20T10:51:15.327Z,100265.64
2023-01-20T10:54:21.420Z,100268.36
2023-01-20T10:56:59.744Z,100277.92
2023-01-20T11:00:04.723Z,100277.95
2023-01-20T11:02:40.873Z,100272.48
2023-01-20T11:05:31.080Z,100268.71
2023-01-20T11:08:44.262Z,100276.05
2023-01-20T11:11:25.941Z,100277.73
2023-01-20T11:14:04.201Z,100274.82
2023-01-20T11:16:42.433Z,100278.06
2023-01-20T11:19:20.035Z,100282.02
2023-01-20T11:21:57.593Z,100285.94
2023-01-20T11:25:05.483Z,100291.23
2023-01-20T11:27:49.289Z,100291.86
2023-01-20T11:30:50.310Z,100289.91
2023-01-20T11:34:09.038Z,100299.58
2023-01-20T11:37:06.769Z,100302.95
2023-01-20T11:40:37.246Z,100312.36
2023-01-20T11:43:49.401Z,100318.88
2023-01-20T11:47:18.000Z,100323.34
2023-01-20T11:50:46.160Z,100329.90
2023-01-20T11:53:32.080Z,100334.89
2023-01-20T11:56:21.264Z,100335.77
2023-01-20T11:59:15.675Z,100335.44
2023-01-20T12:02:29.425Z,100342.45
2023-01-20T12:06:14.057Z,100342.28
2023-01-20T12:09:27.108Z,100345.50
2023-01-20T12:12:54.348Z,100348.40
2023-01-20T12:16:25.649Z,100351.28
2023-01-20T12:19:55.387Z,100356.58
2023-01-20T12:23:27.240Z,100358.10
2023-01-20T12:26:57.107Z,100354.48
2023-01-20T12:30:26.743Z,100351.39
2023-01-20T12:33:57.129Z,100351.23
2023-01-20T12:37:20.649Z,100357.91
2023-01-20T12:41:16.431Z,100362.52
2023-01-20T12:44:52.263Z,100364.16
2023-01-20T12:48:28.324Z,100355.59
2023-01-20T12:52:05.172Z,100361.91
2023-01-20T12:59:53.240Z,100361.19
2023-01-20T13:07:44.037Z,100374.55
2023-01-20T13:10:57.643Z,100381.05
2023-01-20T13:14:38.250Z,100389.77
2023-01-20T13:18:09.333Z,100396.96
2023-01-20T13:21:00.043Z,100397.81
2023-01-20T13:23:43.133Z,100402.09
2023-01-20T13:26:27.912Z,100406.17
2023-01-20T13:29:32.343Z,100405.67
2023-01-20T13:32:48.058Z,100404.80
2023-01-20T13:36:04.583Z,100401.21
2023-01-20T13:38:56.161Z,100400.16
2023-01-20T13:42:27.053Z,100399.33
2023-01-20T13:45:34.052Z,100402.25
2023-01-20T13:48:56.541Z,100407.02
2023-01-20T13:52:21.965Z,100409.91
2023-01-20T13:55:02.003Z,100417.91
2023-01-20T13:57:44.293Z,100414.29
2023-01-20T14:00:40.411Z,100407.75
2023-01-20T14:03:28.148Z,100411.28
2023-01-20T14:06:05.761Z,100417.04
2023-01-20T14:08:50.640Z,100418.02
2023-01-20T14:11:26.966Z,100422.42
2023-01-20T14:13:59.971Z,100425.63
2023-01-20T14:16:38.712Z,100432.42
2023-01-20T14:19:34.698Z,100440.19
2023-01-20T14:22:17.666Z,100453.55
2023-01-20T14:24:49.429Z,100461.50
2023-01-20T14:27:30.055Z,100465.94
2023-01-20T14:30:14.015Z,100471.35
2023-01-20T14:32:43.285Z,100475.61
2023-01-20T14:35:31.667Z,100486.71
2023-01-20T14:38:01.651Z,100497.60
2023-01-20T14:40:34.058Z,100500.13
2023-01-20T14:43:15.988Z,100501.46
2023-01-20T14:45:48.758Z,100502.25
2023-01-20T14:48:32.948Z,100499.98
2023-01-20T14:51:04.665Z,100499.64
2023-01-20T14:53:34.131Z,100504.26
2023-01-20T14:56:08.673Z,100507.67
2023-01-20T14:59:40.034Z,100506.85
2023-01-20T15:02:28.545Z,100511.44
2023-01-20T15:04:57.891Z,100515.30
2023-01-20T15:07:27.157Z,100515.36
2023-01-20T15:10:03.487Z,100519.58
2023-01-20T15:12:40.782Z,100525.10
2023-01-20T15:15:16.200Z,100534.41
2023-01-20T15:18:15.953Z,100536.26
2023-01-20T15:20:50.627Z,100530.52
2023-01-20T15:23:32.831Z,100534.54
2023-01-20T15:26:30.736Z,100543.84
2023-01-20T15:28:59.740Z,100545.04
2023-01-20T15:31:28.839Z,100552.54
2023-01-20T15:33:57.505Z,100556.81
2023-01-20T15:36:33.555Z,100563.64
2023-01-20T15:39:02.171Z,100574.55
2023-01-20T15:41:30.805Z,100579.14
2023-01-20T15:44:25.183Z,100579.51
2023-01-20T15:46:56.996Z,100582.52
2023-01-20T15:49:26.619Z,100585.84
2023-01-20T15:51:55.360Z,100589.63
2023-01-20T15:54:24.870Z,100584.45
2023-01-20T15:56:54.611Z,100591.19
2023-01-20T15:59:26.370Z,100593.18
2023-01-20T16:01:54.874Z,100594.70
2023-01-20T16:04:24.224Z,100593.35
2023-01-20T16:06:53.340Z,100597.92
2023-01-20T16:09:26.617Z,100596.34
2023-01-20T16:11:55.705Z,100602.79
2023-01-20T16:14:24.762Z,100608.24
2023-01-20T16:16:53.525Z,100609.94
2023-01-20T16:19:22.223Z,100611.52
2023-01-20T16:21:51.150Z,100612.01
2023-01-20T16:24:19.669Z,100616.56
2023-01-20T16:26:48.303Z,100617.46
2023-01-20T16:29:17.777Z,100619.21
2023-01-20T16:31:46.388Z,100623.13
2023-01-20T16:34:15.392Z,100627.39
2023-01-20T16:36:44.201Z,100627.71
2023-01-20T16:39:13.123Z,100636.04
2023-01-20T16:41:50.115Z,100640.32
2023-01-20T16:44:19.459Z,100641.00
2023-01-20T16:46:52.399Z,100641.86
2023-01-20T16:49:22.730Z,100643.70
2023-01-20T16:51:52.144Z,100648.31
2023-01-20T16:54:21.706Z,100650.03
2023-01-20T16:56:50.670Z,100655.30
2023-01-20T16:59:30.149Z,100657.17
2023-01-20T17:02:03.385Z,100660.63
2023-01-20T17:04:32.370Z,100662.84
2023-01-20T17:07:01.760Z,100666.92
2023-01-20T17:09:30.871Z,100669.41
2023-01-20T17:11:59.696Z,100666.26
2023-01-20T17:14:32.349Z,100669.43
2023-01-20T17:17:01.060Z,100671.90
2023-01-20T17:19:31.349Z,100675.73
2023-01-20T17:22:00.526Z,100675.54
2023-01-20T17:24:30.161Z,100679.63
2023-01-20T17:27:00.440Z,100678.13
2023-01-20T17:29:29.908Z,100677.98
2023-01-20T17:32:00.037Z,100678.16
2023-01-20T17:34:30.152Z,100679.39
2023-01-20T17:37:27.027Z,100688.45
2023-01-20T17:40:42.481Z,100699.35
2023-01-20T17:43:12.083Z,100704.21
2023-01-20T17:45:42.985Z,100708.77
2023-01-20T17:48:11.911Z,100711.94
2023-01-20T17:50:41.713Z,100707.82
2023-01-20T17:53:10.369Z,100708.81
2023-01-20T17:55:39.665Z,100712.91
2023-01-20T17:58:11.460Z,100714.95
2023-01-20T18:00:40.976Z,100719.91
2023-01-20T18:03:11.742Z,100722.02
2023-01-20T18:05:41.381Z,100727.48
2023-01-20T18:08:11.078Z,100735.67
2023-01-20T18:10:40.143Z,100731.61
2023-01-20T18:13:11.389Z,100735.40
2023-01-20T18:15:42.684Z,100739.20
2023-01-20T18:18:13.960Z,100744.35
2023-01-20T18:20:45.657Z,100747.05
2023-01-20T18:23:15.750Z,100751.14
2023-01-20T18:25:45.471Z,100755.95
2023-01-20T18:28:14.620Z,100760.40
2023-01-20T18:30:45.183Z,100761.95
2023-01-20T18:33:13.988Z,100764.66
2023-01-20T18:35:43.164Z,100765.51
2023-01-20T18:38:12.826Z,100764.33
2023-01-20T18:40:42.016Z,100761.94
2023-01-20T18:43:11.352Z,100771.30
2023-01-20T18:45:40.852Z,100776.57
2023-01-20T18:48:23.449Z,100775.05
2023-01-20T18:50:58.596Z,100778.45
2023-01-20T18:53:30.893Z,100774.52
2023-01-20T18:56:02.532Z,100774.17
2023-01-20T18:58:36.266Z,100771.45
2023-01-20T19:01:13.242Z,100770.61
2023-01-20T19:03:44.025Z,100771.82
2023-01-20T19:06:21.666Z,100776.74
2023-01-20T19:08:53.054Z,100782.71
2023-01-20T19:11:26.115Z,100779.98
2023-01-20T19:14:00.024Z,100778.48
2023-01-20T19:16:42.625Z,100779.86
2023-01-20T19:19:12.680Z,100778.00
2023-01-20T19:21:46.911Z,100778.67
2023-01-20T19:24:20.787Z,100784.46
2023-01-20T19:26:50.717Z,100781.73
2023-01-20T19:29:20.479Z,100780.37
2023-01-20T19:31:53.478Z,100776.13
2023-01-20T19:34:23.623Z,100781.57
2023-01-20T19:36:53.628Z,100781.90
2023-01-20T19:39:23.831Z,100781.73
2023-01-20T19:41:54.348Z,100785.65
2023-01-20T19:44:25.398Z,100781.55
2023-01-20T19:46:59.719Z,100782.08
2023-01-20T19:49:35.293Z,100780.70
2023-01-20T19:52:07.073Z,100780.39
2023-01-20T19:54:38.871Z,100781.11
2023-01-20T19:57:09.080Z,100781.46
2023-01-20T19:59:41.959Z,100780.43
2023-01-20T20:02:13.499Z,100779.06
2023-01-20T20:04:46.736Z,100781.15
2023-01-20T20:07:17.493Z,100784.90
2023-01-20T20:09:48.693Z,100792.20
2023-01-20T20:12:20.692Z,100799.35
2023-01-20T20:14:52.413Z,100807.15
2023-01-20T20:17:23.873Z,100812.09
2023-01-20T20:19:54.854Z,100816.65
2023-01-20T20:22:25.977Z,100823.09
2023-01-20T20:24:59.336Z,100825.29
2023-01-20T20:27:29.534Z,100831.49
2023-01-20T20:30:05.945Z,100835.16
2023-01-20T20:32:36.143Z,100841.94
2023-01-20T20:35:08.290Z,100842.25
2023-01-20T20:37:39.300Z,100846.81
2023-01-20T20:40:13.681Z,100854.92
2023-01-20T20:42:44.474Z,100858.52
2023-01-20T20:45:13.874Z,100866.52
2023-01-20T20:47:43.305Z,100863.25
2023-01-20T20:50:14.256Z,100859.98
2023-01-20T20:52:51.516Z,100858.97
2023-01-20T20:55:24.293Z,100857.06
2023-01-20T20:57:53.605Z,100854.73
2023-01-20T21:01:21.198Z,100854.16
2023-01-20T21:03:51.396Z,100852.23
2023-01-20T21:06:23.248Z,100851.88
2023-01-20T21:08:53.891Z,100853.23
2023-01-20T21:11:25.824Z,100855.42
2023-01-20T21:13:55.605Z,100857.25
2023-01-20T21:16:27.068Z,100853.52
2023-01-20T21:18:59.377Z,100851.11
2023-01-20T21:21:29.995Z,100852.98
2023-01-20T21:24:00.018Z,100852.58
2023-01-20T21:26:30.962Z,100857.85
2023-01-20T21:29:02.525Z,100857.85
2023-01-20T21:31:35.468Z,100850.36
2023-01-20T21:34:05.154Z,100847.28
2023-01-20T21:36:41.751Z,100846.45
2023-01-20T21:39:17.156Z,100846.25
2023-01-20T21:41:49.522Z,100846.25
2023-01-20T21:44:32.973Z,100848.48
2023-01-20T21:47:11.798Z,100844.74
2023-01-20T21:49:59.755Z,100848.72
2023-01-20T21:52:43.223Z,100847.55
2023-01-20T21:55:19.564Z,100845.18
2023-01-20T21:57:51.358Z,100843.48
2023-01-20T22:00:22.486Z,100850.43
2023-01-20T22:02:51.349Z,100853.00
2023-01-20T22:05:21.266Z,100852.17
2023-01-20T22:07:50.490Z,100850.48
2023-01-20T22:10:19.524Z,100851.17
2023-01-20T22:12:48.130Z,100855.29
2023-01-20T22:15:16.920Z,100859.21
2023-01-20T22:17:45.700Z,100859.06
2023-01-20T22:20:15.243Z,100853.97
2023-01-20T22:22:44.696Z,100856.35
2023-01-20T22:25:13.959Z,100859.52
2023-01-20T22:27:42.496Z,100859.52
2023-01-20T22:30:11.810Z,100858.13
2023-01-20T22:32:40.805Z,100855.08
2023-01-20T22:35:09.733Z,100856.28
2023-01-20T22:37:39.087Z,100848.95
2023-01-20T22:40:08.000Z,100846.69
2023-01-20T22:42:36.329Z,100850.79
2023-01-20T22:45:05.008Z,100856.78
2023-01-20T22:47:33.471Z,100853.91
2023-01-20T22:50:02.154Z,100848.36
2023-01-20T22:52:31.131Z,100848.07
2023-01-20T22:54:59.654Z,100847.22
2023-01-20T22:57:31.029Z,100845.65
2023-01-20T23:01:03.442Z,100835.13
2023-01-20T23:03:33.143Z,100830.04
2023-01-20T23:06:01.818Z,100849.43
2023-01-20T23:08:32.345Z,100858.65
2023-01-20T23:11:04.720Z,100851.19
2023-01-20T23:13:35.616Z,100837.24
2023-01-20T23:16:08.347Z,100827.39
2023-01-20T23:18:38.423Z,100813.27
2023-01-20T23:21:07.359Z,100814.45
2023-01-20T23:23:37.126Z,100813.27
2023-01-20T23:26:17.558Z,100807.14
2023-01-20T23:28:47.702Z,100805.45
2023-01-20T23:31:17.961Z,100807.15
2023-01-20T23:33:47.390Z,100810.08
2023-01-20T23:36:24.864Z,100810.77
2023-01-20T23:38:57.213Z,100818.12
2023-01-20T23:41:25.870Z,100820.69
2023-01-20T23:43:54.602Z,100816.77
2023-01-20T23:46:23.418Z,100819.16
2023-01-20T23:48:52.021Z,100818.35
2023-01-20T23:51:21.354Z,100811.22
2023-01-20T23:53:50.650Z,100810.55
2023-01-20T23:56:23.832Z,100809.36
2023-01-20T23:59:18.469Z,100808.82
